Time;durP1;ratioP1;P1;durP2;ratioP2;P2;SDS_P1;SDS_P2;PMS_P1;PMS_P2;Temp;Humidity;BMP_temperature;BMP_pressure;BME280_temperature;BME280_humidity;BME280_pressure;Samples;Min_cycle;Max_cycle;Signal;HPM_P1;HPM_P2
2024/03/01 00:01:19;;;;;;;17.58;14.25;;;;;;;9.08;66.71;99169.53;10428475;28;20121;-63
2024/03/01 00:06:21;;;;;;;20.98;16.52;;;;;;;9.02;66.74;99170.09;10410158;28;20792;-64
2024/03/01 00:11:22;;;;;;;20.35;16.15;;;;;;;9.06;66.74;99166.19;10415210;28;20526;-65
2024/03/01 00:16:24;;;;;;;21.52;16.98;;;;;;;9.01;67.39;99157.81;10430314;28;20060;-63
2024/03/01 00:21:26;;;;;;;19.83;16.33;;;;;;;9.00;67.10;99150.81;10437531;28;20056;-63
2024/03/01 00:26:28;;;;;;;21.40;15.98;;;;;;;8.96;67.31;99144.13;10431215;28;20127;-63
2024/03/01 00:31:29;;;;;;;21.30;15.95;;;;;;;8.90;67.33;99144.69;10397897;28;20096;-64
2024/03/01 00:36:31;;;;;;;21.10;16.33;;;;;;;8.85;67.43;99137.97;10412240;28;20403;-64
2024/03/01 00:41:33;;;;;;;18.63;15.55;;;;;;;8.88;67.42;99136.03;10405539;28;20148;-65
2024/03/01 00:46:35;;;;;;;21.00;16.73;;;;;;;8.78;67.80;99136.00;10425240;28;20144;-63
2024/03/01 00:51:37;;;;;;;22.52;16.92;;;;;;;8.76;67.83;99138.81;10431573;28;20083;-62
2024/03/01 00:56:38;;;;;;;20.70;16.17;;;;;;;8.74;67.95;99140.78;10433870;28;20798;-66
2024/03/01 01:01:40;;;;;;;20.33;16.05;;;;;;;8.59;68.31;99150.13;10433781;28;20056;-63
2024/03/01 01:06:42;;;;;;;26.90;16.33;;;;;;;8.57;69.03;99147.59;10431341;28;20049;-63
2024/03/01 01:11:43;;;;;;;20.95;15.23;;;;;;;8.59;68.48;99131.56;10433269;28;20149;-63
2024/03/01 01:16:44;;;;;;;21.63;16.83;;;;;;;8.51;68.57;99121.59;10418010;28;20135;-62
2024/03/01 01:21:48;;;;;;;20.30;16.25;;;;;;;8.43;69.21;99127.56;10427470;28;20068;-63
2024/03/01 01:26:50;;;;;;;22.88;17.42;;;;;;;8.08;69.61;99102.41;10408537;28;20506;-63
2024/03/01 01:31:52;;;;;;;20.52;16.95;;;;;;;8.41;69.64;99134.84;10398858;28;20056;-61
2024/03/01 01:36:55;;;;;;;20.75;17.27;;;;;;;8.27;70.10;99137.88;10413344;28;20177;-63
2024/03/01 01:41:58;;;;;;;21.58;15.73;;;;;;;8.13;70.79;99131.97;10395177;28;20045;-63
2024/03/01 01:47:01;;;;;;;19.55;15.48;;;;;;;8.11;70.97;99118.03;10440515;28;20110;-64
2024/03/01 01:52:02;;;;;;;22.27;17.45;;;;;;;8.08;71.01;99105.03;10430265;28;21063;-63
2024/03/01 01:57:07;;;;;;;22.37;17.90;;;;;;;8.10;71.31;99083.69;10429502;28;20037;-63
2024/03/01 02:02:09;;;;;;;21.42;16.42;;;;;;;8.22;70.59;99095.03;10440615;28;21080;-63
2024/03/01 02:07:10;;;;;;;21.60;17.90;;;;;;;8.24;70.85;99082.47;10436375;28;20056;-62
2024/03/01 02:12:14;;;;;;;22.02;16.58;;;;;;;8.25;70.64;99081.50;10433466;28;20642;-63
2024/03/01 02:17:15;;;;;;;20.65;16.55;;;;;;;8.19;70.41;99082.88;10435156;28;20534;-63
2024/03/01 02:22:22;;;;;;;22.55;17.55;;;;;;;8.09;71.03;99087.31;10439340;28;20045;-63
2024/03/01 02:27:24;;;;;;;21.00;16.73;;;;;;;8.03;71.23;99088.72;10414880;28;20057;-62
2024/03/01 02:32:28;;;;;;;25.90;18.85;;;;;;;7.83;71.71;99087.81;10434483;28;20045;-62
2024/03/01 02:37:29;;;;;;;22.80;18.15;;;;;;;7.81;72.22;99073.00;10416809;28;20107;-62
2024/03/01 02:42:32;;;;;;;24.95;18.02;;;;;;;7.68;72.31;99063.50;10394884;28;20078;-62
2024/03/01 02:47:34;;;;;;;24.05;18.15;;;;;;;7.76;72.10;99081.38;10436044;28;20160;-63
2024/03/01 02:52:36;;;;;;;24.23;17.42;;;;;;;7.72;72.48;99070.22;10432007;28;20132;-63
2024/03/01 02:57:38;;;;;;;23.52;17.20;;;;;;;7.73;72.86;99071.91;10417516;28;20056;-63
2024/03/01 03:02:39;;;;;;;20.95;16.83;;;;;;;7.68;72.60;99054.72;10424753;28;20165;-63
2024/03/01 03:07:40;;;;;;;25.58;17.40;;;;;;;7.65;72.61;99073.53;10423352;28;20090;-63
2024/03/01 03:12:47;;;;;;;23.20;17.83;;;;;;;7.61;72.81;99079.09;10422209;28;20053;-62
2024/03/01 03:17:50;;;;;;;22.58;17.25;;;;;;;7.59;72.93;99090.78;10400026;28;20128;-62
2024/03/01 03:22:51;;;;;;;21.92;17.40;;;;;;;7.67;72.92;99087.47;10426132;28;20049;-63
2024/03/01 03:27:53;;;;;;;23.85;18.67;;;;;;;7.74;72.35;99089.44;10437331;28;20050;-63
2024/03/01 03:32:55;;;;;;;22.20;17.88;;;;;;;7.65;72.45;99100.84;10401123;28;20058;-63
2024/03/01 03:37:56;;;;;;;22.95;17.08;;;;;;;7.55;72.70;99092.88;10435454;28;20051;-62
2024/03/01 03:42:59;;;;;;;21.15;17.02;;;;;;;7.52;72.73;99094.94;10417449;28;20560;-63
2024/03/01 03:48:04;;;;;;;25.20;17.40;;;;;;;7.51;72.68;99094.09;10435649;28;20041;-64
2024/03/01 03:53:09;;;;;;;21.02;16.77;;;;;;;7.55;72.87;99089.38;10436329;28;20047;-63
2024/03/01 03:58:11;;;;;;;23.45;17.98;;;;;;;7.52;72.45;99079.03;10400623;28;20594;-63
2024/03/01 04:03:13;;;;;;;23.77;18.20;;;;;;;7.33;73.19;99099.19;10424096;28;20065;-63
2024/03/01 04:08:16;;;;;;;23.35;17.40;;;;;;;7.13;73.93;99089.44;10430689;28;20059;-63
2024/03/01 04:13:18;;;;;;;21.75;17.25;;;;;;;7.18;74.01;99101.31;10433240;28;20688;-63
2024/03/01 04:18:19;;;;;;;25.15;17.48;;;;;;;7.26;73.55;99100.66;10434881;28;20052;-62
2024/03/01 04:23:22;;;;;;;23.98;17.75;;;;;;;7.27;72.84;99097.06;10379924;28;20064;-62
2024/03/01 04:28:27;;;;;;;23.52;17.08;;;;;;;7.31;72.47;99101.13;10434233;28;20547;-63
2024/03/01 04:33:29;;;;;;;20.58;17.08;;;;;;;7.32;72.67;99101.94;10433071;28;20594;-63
2024/03/01 04:38:32;;;;;;;22.05;18.15;;;;;;;7.19;72.75;99104.78;10410773;28;20147;-62
2024/03/01 04:43:33;;;;;;;24.92;18.52;;;;;;;7.24;72.83;99107.91;10409286;28;20063;-64
2024/03/01 04:48:35;;;;;;;25.33;18.25;;;;;;;7.23;73.13;99108.88;10427135;28;20457;-63
2024/03/01 04:53:36;;;;;;;24.00;18.45;;;;;;;7.19;73.13;99120.66;10397113;28;20184;-63
2024/03/01 04:58:40;;;;;;;24.17;18.35;;;;;;;7.12;72.88;99123.00;10411660;28;20150;-64
2024/03/01 05:03:44;;;;;;;24.23;19.27;;;;;;;7.12;73.17;99130.13;10421951;28;20053;-64
2024/03/01 05:08:46;;;;;;;25.17;18.35;;;;;;;7.16;72.67;99120.94;10410653;28;20133;-63
2024/03/01 05:13:48;;;;;;;23.77;18.08;;;;;;;7.12;73.37;99130.13;10432994;28;20191;-63
2024/03/01 05:18:49;;;;;;;22.80;18.17;;;;;;;7.17;73.49;99127.91;10429649;28;20840;-62
2024/03/01 05:23:51;;;;;;;22.67;19.35;;;;;;;7.15;73.63;99140.44;10438974;28;20045;-62
2024/03/01 05:28:53;;;;;;;25.02;18.60;;;;;;;7.15;74.19;99146.56;10430022;28;20155;-62
2024/03/01 05:33:55;;;;;;;23.40;18.85;;;;;;;7.06;74.41;99153.47;10427652;28;20206;-63
2024/03/01 05:39:15;;;;;;;22.83;17.80;;;;;;;7.12;74.87;99146.00;10432489;28;20140;-62
2024/03/01 05:44:17;;;;;;;;;;;;;;;7.26;74.57;99156.25;10431722;28;20059;-62
2024/03/01 05:49:19;;;;;;;23.45;17.98;;;;;;;7.17;74.73;99162.31;10414719;28;19924;-63
2024/03/01 05:54:20;;;;;;;26.13;18.52;;;;;;;7.17;74.85;99151.72;10418719;28;20076;-64
2024/03/01 05:59:22;;;;;;;26.48;19.00;;;;;;;7.05;75.32;99157.06;10417600;28;20067;-62
2024/03/01 06:04:24;;;;;;;21.70;19.13;;;;;;;7.10;75.42;99150.56;10429581;28;20045;-63
2024/03/01 06:09:26;;;;;;;24.05;18.83;;;;;;;7.23;74.91;99153.84;10421963;28;20067;-63
2024/03/01 06:14:28;;;;;;;28.98;19.50;;;;;;;7.36;74.60;99138.63;10437886;28;20241;-64
2024/03/01 06:19:31;;;;;;;24.10;18.77;;;;;;;7.35;74.01;99152.81;10397041;28;20053;-63
2024/03/01 06:24:33;;;;;;;29.90;19.30;;;;;;;7.21;74.37;99155.81;10415943;28;20053;-64
2024/03/01 06:29:34;;;;;;;25.67;18.75;;;;;;;7.23;74.13;99175.03;10407663;28;20147;-64
2024/03/01 06:34:36;;;;;;;27.88;18.52;;;;;;;7.22;74.60;99186.56;10438035;28;20411;-63
2024/03/01 06:39:38;;;;;;;24.17;18.77;;;;;;;7.34;74.26;99193.50;10418403;28;20056;-63
2024/03/01 06:44:39;;;;;;;28.50;20.05;;;;;;;7.25;74.67;99175.72;10425675;28;20064;-64
2024/03/01 06:49:41;;;;;;;23.02;17.88;;;;;;;7.37;74.50;99193.25;10441445;28;20107;-63
2024/03/01 06:54:45;;;;;;;28.75;19.23;;;;;;;7.21;74.64;99192.88;10425076;28;21670;-63
2024/03/01 06:59:49;;;;;;;29.73;20.42;;;;;;;7.23;75.15;99196.22;10430358;28;20057;-63
2024/03/01 07:04:50;;;;;;;26.92;18.35;;;;;;;7.38;74.61;99194.09;10424357;28;20064;-62
2024/03/01 07:09:51;;;;;;;25.55;19.02;;;;;;;7.41;74.09;99194.66;10437035;28;20170;-63
2024/03/01 07:14:53;;;;;;;28.75;21.02;;;;;;;7.36;74.50;99210.09;10420744;28;20123;-62
2024/03/01 07:19:55;;;;;;;23.85;18.63;;;;;;;7.44;74.29;99202.34;10438115;28;20443;-63
2024/03/01 07:24:58;;;;;;;26.85;21.17;;;;;;;7.38;74.61;99212.63;10435716;28;20547;-62
2024/03/01 07:30:01;;;;;;;28.52;19.55;;;;;;;7.35;74.64;99204.94;10416232;28;20941;-63
2024/03/01 07:35:05;;;;;;;32.97;21.27;;;;;;;7.33;75.29;99205.06;10435468;28;20048;-62
2024/03/01 07:40:07;;;;;;;29.47;21.23;;;;;;;7.34;75.42;99203.25;10418304;28;20052;-61
2024/03/01 07:45:10;;;;;;;28.42;19.60;;;;;;;7.61;74.68;99213.31;10396353;28;20045;-62
2024/03/01 07:50:15;;;;;;;24.30;18.50;;;;;;;7.78;74.49;99210.09;10410333;28;20137;-61
2024/03/01 07:55:16;;;;;;;25.63;18.67;;;;;;;7.84;74.38;99211.38;10411533;28;20072;-62
2024/03/01 08:00:18;;;;;;;28.17;19.58;;;;;;;7.92;74.12;99205.41;10407973;28;20668;-62
2024/03/01 08:05:20;;;;;;;27.80;20.52;;;;;;;7.92;74.91;99202.75;10418631;28;21121;-63
2024/03/01 08:10:30;;;;;;;23.93;17.07;;;;;;;8.01;75.40;99207.25;10409589;28;20053;-62
2024/03/01 08:15:35;;;;;;;29.10;21.42;;;;;;;8.22;75.41;99198.41;10424623;28;20147;-63
2024/03/01 08:21:05;;;;;;;31.85;21.77;;;;;;;8.34;74.46;99202.66;10425097;28;20237;-62
2024/03/01 08:26:32;;;;;;;28.00;20.20;;;;;;;8.35;74.20;99204.34;10370599;28;20127;-62
2024/03/01 08:31:35;;;;;;;25.63;19.25;;;;;;;8.51;74.69;99187.91;10437267;28;20193;-62
2024/03/01 08:36:41;;;;;;;28.05;20.02;;;;;;;8.74;73.45;99188.53;10418844;28;20146;-62
2024/03/01 08:41:46;;;;;;;30.50;27.00;;;;;;;8.97;72.99;99183.78;10425377;28;20049;-61
2024/03/01 08:46:47;;;;;;;30.60;21.30;;;;;;;9.23;71.95;99177.06;10426527;28;20150;-62
2024/03/01 08:51:50;;;;;;;31.45;21.25;;;;;;;9.42;71.65;99181.53;10410072;28;20063;-61
2024/03/01 08:57:04;;;;;;;31.42;21.60;;;;;;;9.68;70.48;99179.09;10443856;28;20048;-62
2024/03/01 09:02:37;;;;;;;27.02;20.48;;;;;;;9.89;70.44;99178.88;10442569;28;20056;-61
2024/03/01 09:07:38;;;;;;;27.92;21.58;;;;;;;10.17;69.71;99185.06;10428128;28;20231;-63
2024/03/01 09:12:40;;;;;;;22.83;18.83;;;;;;;10.36;68.43;99167.38;10436655;28;20064;-63
2024/03/01 09:17:42;;;;;;;25.92;19.73;;;;;;;10.39;67.73;99153.78;10438692;28;20672;-63
2024/03/01 09:22:43;;;;;;;27.77;20.00;;;;;;;10.60;67.01;99164.97;10439461;28;20575;-63
2024/03/01 09:27:44;;;;;;;25.27;19.42;;;;;;;10.64;67.22;99156.69;10406979;28;20060;-62
2024/03/01 09:32:47;;;;;;;24.35;19.08;;;;;;;10.93;66.41;99152.00;10398013;28;20048;-61
2024/03/01 09:37:49;;;;;;;20.83;17.35;;;;;;;10.96;66.33;99159.66;10421736;28;20104;-63
2024/03/01 09:42:59;;;;;;;22.02;18.33;;;;;;;11.05;66.02;99149.06;10376543;28;20509;-63
2024/03/01 09:48:18;;;;;;;21.48;18.02;;;;;;;10.91;66.60;99164.63;10407379;28;20413;-64
2024/03/01 09:53:29;;;;;;;22.42;18.13;;;;;;;11.03;66.73;99154.56;10427282;28;20053;-62
2024/03/01 09:58:39;;;;;;;22.40;17.27;;;;;;;11.12;66.66;99155.47;10437745;28;20114;-63
2024/03/01 10:04:08;;;;;;;16.95;13.93;;;;;;;11.10;66.99;99157.47;10436207;28;20434;-64
2024/03/01 10:09:41;;;;;;;20.48;14.90;;;;;;;11.07;66.96;99171.91;10410423;28;20049;-64
2024/03/01 10:15:03;;;;;;;16.23;14.38;;;;;;;10.85;68.12;99175.88;10408761;28;20150;-63
2024/03/01 10:20:20;;;;;;;15.18;12.65;;;;;;;10.76;68.71;99188.28;10413430;28;20136;-62
2024/03/01 10:25:40;;;;;;;13.68;12.18;;;;;;;10.55;69.89;99183.25;10386263;28;20063;-63
2024/03/01 10:30:56;;;;;;;14.45;12.13;;;;;;;10.54;70.20;99184.22;10418976;28;20080;-64
2024/03/01 10:36:27;;;;;;;14.65;11.57;;;;;;;10.55;70.28;99185.91;10417738;28;20051;-63
2024/03/01 10:42:05;;;;;;;13.90;12.43;;;;;;;10.63;70.25;99185.16;10416101;28;22271;-64
2024/03/01 10:47:13;;;;;;;15.85;13.60;;;;;;;10.67;70.18;99197.13;10431419;28;20851;-63
2024/03/01 10:52:24;;;;;;;18.20;13.20;;;;;;;10.38;70.75;99178.69;10428493;28;20132;-63
2024/03/01 10:57:26;;;;;;;17.73;13.95;;;;;;;10.44;70.79;99191.41;10397598;28;20060;-63
2024/03/01 11:02:39;;;;;;;17.83;14.23;;;;;;;10.41;71.29;99194.38;10410600;28;20134;-64
2024/03/01 11:07:58;;;;;;;20.60;14.35;;;;;;;10.21;72.43;99212.22;10434222;28;20546;-63
2024/03/01 11:13:10;;;;;;;16.40;14.27;;;;;;;10.06;73.95;99206.53;10426909;28;20052;-62
2024/03/01 11:18:17;;;;;;;18.65;16.10;;;;;;;10.08;73.82;99205.41;10408182;28;20612;-62
2024/03/01 11:23:23;;;;;;;18.40;14.43;;;;;;;10.06;74.31;99206.53;10430013;28;20048;-65
2024/03/01 11:28:27;;;;;;;16.60;13.30;;;;;;;10.08;73.87;99209.88;10421146;28;20177;-66
2024/03/01 11:33:34;;;;;;;16.95;12.75;;;;;;;10.05;74.16;99200.38;10378877;28;20163;-64
2024/03/01 11:38:56;;;;;;;14.43;12.18;;;;;;;10.06;74.59;99206.53;10423306;28;20798;-66
2024/03/01 11:44:22;;;;;;;13.13;10.60;;;;;;;10.07;74.21;99213.53;10407446;28;20052;-66
2024/03/01 11:49:38;;;;;;;12.15;10.07;;;;;;;10.16;74.03;99212.63;10417598;28;20130;-64
2024/03/01 11:55:13;;;;;;;13.07;10.32;;;;;;;10.25;73.38;99206.47;10436334;28;20904;-67
2024/03/01 12:00:30;;;;;;;11.80;8.68;;;;;;;10.29;72.08;99200.84;10429522;28;20051;-64
2024/03/01 12:05:48;;;;;;;8.98;7.70;;;;;;;10.33;71.59;99207.53;10396581;28;20650;-63
2024/03/01 12:11:17;;;;;;;10.57;7.85;;;;;;;10.51;71.03;99207.59;10416080;28;20154;-64
2024/03/01 12:16:35;;;;;;;8.75;7.85;;;;;;;10.50;70.70;99197.97;10411912;28;20056;-64
2024/03/01 12:22:15;;;;;;;9.25;7.55;;;;;;;10.40;70.74;99198.00;10407502;28;20067;-63
2024/03/01 12:27:22;;;;;;;8.30;7.13;;;;;;;10.40;70.39;99198.88;10398687;28;20052;-62
2024/03/01 12:32:43;;;;;;;8.30;7.00;;;;;;;10.41;70.78;99191.72;10432970;28;20214;-67
2024/03/01 12:38:19;;;;;;;7.60;5.65;;;;;;;10.39;69.92;99199.00;10425684;28;20078;-65
2024/03/01 12:43:40;;;;;;;7.57;6.07;;;;;;;10.36;69.67;99196.66;10426839;28;20053;-65
2024/03/01 12:49:19;;;;;;;6.90;6.05;;;;;;;10.38;69.94;99194.66;10390680;28;20140;-64
2024/03/01 12:54:31;;;;;;;7.07;5.60;;;;;;;10.46;69.45;99202.72;10400335;28;20056;-65
2024/03/01 12:59:54;;;;;;;7.63;6.20;;;;;;;12.08;65.81;99183.13;10416915;28;20133;-65
2024/03/01 13:05:14;;;;;;;6.28;5.20;;;;;;;14.76;55.96;99180.69;10356236;28;20049;-66
2024/03/01 13:10:18;;;;;;;5.90;4.93;;;;;;;13.95;56.30;99161.28;10432259;28;20049;-64
2024/03/01 13:15:21;;;;;;;5.80;4.43;;;;;;;13.07;58.28;99168.19;10426151;28;20071;-64
2024/03/01 13:20:43;;;;;;;5.38;4.32;;;;;;;12.31;60.32;99168.22;10427564;28;20447;-66
2024/03/01 13:26:18;;;;;;;5.35;3.90;;;;;;;12.03;61.07;99165.75;10407756;28;20060;-65
2024/03/01 13:31:25;;;;;;;4.18;3.60;;;;;;;11.81;62.01;99159.13;10429780;28;20056;-65
2024/03/01 13:36:30;;;;;;;3.85;2.40;;;;;;;11.65;62.44;99162.53;10409233;28;20044;-64
2024/03/01 13:41:32;;;;;;;;;;;;;;;11.61;61.70;99147.00;10370143;28;20144;-64
2024/03/01 13:46:39;;;;;;;1.33;1.23;;;;;;;11.60;61.88;99132.81;10437406;28;20335;-64
2024/03/01 13:51:47;;;;;;;1.30;1.00;;;;;;;11.81;61.22;99136.94;10433625;28;20051;-68
2024/03/01 13:56:50;;;;;;;2.22;1.17;;;;;;;12.21;60.42;99146.16;10408099;28;20044;-66
2024/03/01 14:01:52;;;;;;;2.60;1.33;;;;;;;12.60;58.47;99145.59;10410579;28;20499;-67
2024/03/01 14:06:54;;;;;;;1.40;1.00;;;;;;;12.30;58.96;99139.84;10430309;28;20052;-69
2024/03/01 14:11:55;;;;;;;1.00;0.55;;;;;;;12.08;58.63;99132.44;10432873;28;20051;-67
2024/03/01 14:16:59;;;;;;;1.33;0.60;;;;;;;11.91;59.39;99132.34;10366194;28;20053;-66
2024/03/01 14:22:00;;;;;;;1.10;0.63;;;;;;;12.12;59.13;99131.13;10415919;28;20139;-65
2024/03/01 14:27:02;;;;;;;1.35;0.60;;;;;;;12.68;57.47;99124.25;10418685;28;20063;-66
2024/03/01 14:32:08;;;;;;;1.60;0.60;;;;;;;14.89;50.61;99129.16;10407223;28;20129;-66
2024/03/01 14:37:12;;;;;;;1.52;0.60;;;;;;;14.41;50.66;99117.75;10413414;28;20688;-66
2024/03/01 14:42:18;;;;;;;0.95;0.80;;;;;;;14.83;50.20;99119.19;10427003;28;20045;-66
2024/03/01 14:47:27;;;;;;;2.75;0.60;;;;;;;14.06;51.20;99119.94;10403440;28;20063;-66
2024/03/01 14:52:29;;;;;;;1.17;0.70;;;;;;;13.37;53.57;99099.06;10428482;28;20052;-64
2024/03/01 14:57:30;;;;;;;3.47;1.38;;;;;;;13.87;52.66;99107.78;10408164;28;20061;-67
2024/03/01 15:02:32;;;;;;;1.20;1.00;;;;;;;13.90;50.90;99115.47;10416412;28;20118;-68
2024/03/01 15:07:33;;;;;;;1.23;1.05;;;;;;;13.76;51.22;99115.19;10394800;28;20130;-65
2024/03/01 15:12:36;;;;;;;2.42;0.90;;;;;;;13.18;52.07;99110.91;10429168;28;20077;-65
2024/03/01 15:17:38;;;;;;;1.33;0.80;;;;;;;12.54;53.74;99115.06;10400508;28;20118;-65
2024/03/01 15:22:51;;;;;;;2.85;0.95;;;;;;;12.30;54.85;99113.16;10417333;28;20048;-64
2024/03/01 15:27:56;;;;;;;1.77;1.02;;;;;;;12.12;55.37;99120.47;10428434;28;20147;-64
2024/03/01 15:33:01;;;;;;;;;;;;;;;11.65;57.08;99108.38;10397989;28;20049;-69
2024/03/01 15:38:05;;;;;;;1.42;1.02;;;;;;;11.42;57.22;99110.75;10402041;28;20461;-65
2024/03/01 15:43:07;;;;;;;1.57;1.23;;;;;;;11.46;57.80;99110.25;10423584;28;20071;-65
2024/03/01 15:48:09;;;;;;;1.60;1.20;;;;;;;11.40;58.26;99110.06;10408659;28;20779;-65
2024/03/01 15:53:12;;;;;;;2.17;1.38;;;;;;;11.43;58.67;99110.56;10420064;28;20062;-64
2024/03/01 15:58:14;;;;;;;1.30;1.05;;;;;;;11.43;58.41;99101.75;10394774;28;20109;-65
2024/03/01 16:03:16;;;;;;;1.58;0.93;;;;;;;11.41;58.10;99106.38;10416095;28;20068;-66
2024/03/01 16:08:19;;;;;;;3.85;1.60;;;;;;;11.35;57.53;99096.38;10417574;28;20087;-64
2024/03/01 16:13:28;;;;;;;2.67;1.40;;;;;;;11.29;58.02;99098.69;10410903;28;20063;-65
2024/03/01 16:18:33;;;;;;;2.63;1.45;;;;;;;11.19;58.40;99092.59;10427622;28;20649;-65
2024/03/01 16:23:38;;;;;;;1.52;1.10;;;;;;;11.12;58.59;99094.22;10430388;28;20075;-66
2024/03/01 16:28:42;;;;;;;2.65;1.25;;;;;;;11.03;58.74;99092.47;10423429;28;20943;-66
2024/03/01 16:33:43;;;;;;;1.55;1.05;;;;;;;10.96;59.52;99101.09;10409308;28;20589;-66
2024/03/01 16:38:46;;;;;;;1.23;0.77;;;;;;;10.90;59.60;99101.72;10387309;28;20044;-66
2024/03/01 16:43:48;;;;;;;1.95;1.45;;;;;;;10.89;59.95;99102.69;10402792;28;20063;-65
2024/03/01 16:48:52;;;;;;;2.38;1.50;;;;;;;10.76;60.30;99103.09;10409047;28;20064;-65
2024/03/01 16:53:56;;;;;;;1.42;1.10;;;;;;;10.72;60.41;99091.09;10424308;28;20045;-64
2024/03/01 16:58:58;;;;;;;2.00;0.90;;;;;;;10.65;60.86;99097.16;10421709;28;20139;-66
2024/03/01 17:04:02;;;;;;;1.58;1.10;;;;;;;10.61;61.29;99105.47;10427686;28;20059;-65
2024/03/01 17:09:14;;;;;;;3.13;2.00;;;;;;;10.60;61.64;99108.28;10402998;28;20271;-65
2024/03/01 17:14:16;;;;;;;2.00;1.60;;;;;;;10.56;61.77;99107.72;10391039;28;20517;-65
2024/03/01 17:19:41;;;;;;;2.60;2.28;;;;;;;10.57;61.92;99104.09;10419518;28;20040;-65
2024/03/01 17:24:46;;;;;;;3.55;2.95;;;;;;;10.49;62.19;99101.31;10422191;28;20075;-66
2024/03/01 17:29:48;;;;;;;3.65;2.53;;;;;;;10.43;62.52;99101.94;10422106;28;20051;-65
2024/03/01 17:34:49;;;;;;;3.22;2.80;;;;;;;10.46;62.66;99104.28;10437186;28;20056;-66
2024/03/01 17:39:51;;;;;;;4.30;2.90;;;;;;;10.43;63.06;99096.63;10383513;28;20090;-65
2024/03/01 17:44:52;;;;;;;2.95;2.35;;;;;;;10.30;63.13;99080.16;10427117;28;20056;-64
2024/03/01 17:49:56;;;;;;;2.63;2.42;;;;;;;10.19;63.39;99073.22;10434717;28;20055;-64
2024/03/01 17:54:58;;;;;;;2.78;2.10;;;;;;;10.19;63.88;99095.34;10420992;28;20410;-64
2024/03/01 17:59:59;;;;;;;4.13;2.00;;;;;;;10.20;63.97;99097.00;10436717;28;20053;-66
2024/03/01 18:05:02;;;;;;;4.03;2.15;;;;;;;10.11;64.27;99081.97;10412539;28;20083;-67
2024/03/01 18:10:06;;;;;;;3.00;2.10;;;;;;;10.12;64.27;99099.59;10415242;28;20049;-66
2024/03/01 18:15:08;;;;;;;1.83;1.63;;;;;;;10.15;64.51;99101.09;10439008;28;20444;-66
2024/03/01 18:20:09;;;;;;;3.80;3.35;;;;;;;10.07;65.41;99104.50;10393573;28;20106;-65
2024/03/01 18:25:11;;;;;;;3.22;2.92;;;;;;;10.05;65.30;99093.19;10400869;28;20048;-66
2024/03/01 18:30:14;;;;;;;3.55;2.35;;;;;;;10.04;65.38;99107.47;10422732;28;20142;-65
2024/03/01 18:35:15;;;;;;;6.40;3.03;;;;;;;10.08;65.72;99103.53;10385590;28;20048;-66
2024/03/01 18:40:17;;;;;;;5.25;3.88;;;;;;;10.04;66.17;99102.13;10422790;28;20053;-66
2024/03/01 18:45:18;;;;;;;5.03;3.58;;;;;;;9.95;66.35;99103.03;10430993;28;20418;-65
2024/03/01 18:50:20;;;;;;;4.53;3.70;;;;;;;9.90;66.81;99096.34;10413576;28;20132;-66
2024/03/01 18:55:21;;;;;;;4.68;3.55;;;;;;;9.82;67.14;99093.59;10417367;28;20049;-64
2024/03/01 19:00:23;;;;;;;4.35;3.95;;;;;;;9.78;67.13;99084.22;10432519;28;20056;-65
2024/03/01 19:05:26;;;;;;;4.43;3.72;;;;;;;9.75;67.50;99084.53;10435341;28;21584;-66
2024/03/01 19:10:29;;;;;;;4.80;4.30;;;;;;;9.71;67.98;99078.69;10432564;28;20079;-65
2024/03/01 19:15:33;;;;;;;5.22;4.35;;;;;;;9.77;67.73;99073.75;10413255;28;20108;-67
2024/03/01 19:20:34;;;;;;;4.35;3.85;;;;;;;9.76;67.80;99083.53;10433839;28;20059;-68
2024/03/01 19:25:36;;;;;;;5.25;4.40;;;;;;;9.72;68.07;99076.84;10400768;28;20060;-65
2024/03/01 19:30:37;;;;;;;5.00;4.50;;;;;;;9.70;68.22;99074.34;10414707;28;20060;-67
2024/03/01 19:35:40;;;;;;;4.80;4.28;;;;;;;9.61;68.28;99071.69;10394417;28;20044;-66
2024/03/01 19:40:42;;;;;;;5.35;4.30;;;;;;;9.66;68.43;99072.13;10429347;28;20067;-66
2024/03/01 19:45:46;;;;;;;5.15;4.65;;;;;;;9.59;69.00;99076.34;10372582;28;20041;-67
2024/03/01 19:50:48;;;;;;;6.05;5.45;;;;;;;9.57;68.81;99078.31;10416907;28;20242;-67
2024/03/01 19:55:54;;;;;;;5.77;5.10;;;;;;;9.55;69.31;99081.13;10418556;28;20574;-67
2024/03/01 20:00:56;;;;;;;5.20;4.32;;;;;;;9.41;69.38;99069.13;10409465;28;20292;-66
2024/03/01 20:05:57;;;;;;;6.18;5.50;;;;;;;9.39;69.92;99073.75;10418134;28;20048;-65
2024/03/01 20:10:59;;;;;;;5.82;4.88;;;;;;;9.34;70.34;99076.84;10427570;28;20048;-66
2024/03/01 20:16:00;;;;;;;5.80;5.20;;;;;;;9.32;70.38;99070.00;10413685;28;20160;-65
2024/03/01 20:21:05;;;;;;;5.50;5.00;;;;;;;9.22;70.46;99058.56;10375055;28;20442;-63
2024/03/01 20:26:08;;;;;;;6.18;5.57;;;;;;;9.24;71.36;99073.38;10405094;28;20041;-65
2024/03/01 20:31:10;;;;;;;6.95;6.30;;;;;;;9.19;71.60;99065.84;10411382;28;20450;-65
2024/03/01 20:36:12;;;;;;;8.27;7.35;;;;;;;9.11;71.69;99059.56;10410104;28;20844;-65
2024/03/01 20:41:13;;;;;;;7.90;6.28;;;;;;;9.07;71.82;99056.38;10388059;28;20270;-68
2024/03/01 20:46:16;;;;;;;7.70;5.70;;;;;;;9.02;72.22;99055.94;10432234;28;20561;-67
2024/03/01 20:51:17;;;;;;;5.55;4.97;;;;;;;9.02;71.99;99053.28;10416725;28;20051;-67
2024/03/01 20:56:19;;;;;;;5.20;4.35;;;;;;;8.91;72.41;99049.00;10407794;28;20420;-66
2024/03/01 21:01:22;;;;;;;6.40;4.85;;;;;;;8.98;72.30;99049.28;10429134;28;20049;-67
2024/03/01 21:06:23;;;;;;;5.30;4.13;;;;;;;8.96;72.39;99046.75;10429206;28;20098;-66
2024/03/01 21:11:25;;;;;;;4.35;3.95;;;;;;;8.97;72.61;99048.41;10434608;28;20060;-67
2024/03/01 21:16:28;;;;;;;5.13;4.47;;;;;;;8.89;72.38;99032.38;10413200;28;22272;-67
2024/03/01 21:21:29;;;;;;;6.70;4.82;;;;;;;8.88;73.00;99037.84;10420960;28;20068;-66
2024/03/01 21:26:51;;;;;;;4.18;3.78;;;;;;;8.88;73.12;99028.03;10402415;28;20761;-68
2024/03/01 21:31:52;;;;;;;5.15;4.63;;;;;;;8.85;73.24;99026.50;10355077;28;20410;-67
2024/03/01 21:36:56;;;;;;;4.70;4.30;;;;;;;8.82;73.42;99010.88;10388897;28;20052;-66
2024/03/01 21:41:57;;;;;;;4.78;4.20;;;;;;;8.90;73.06;99009.34;10430462;28;20061;-66
2024/03/01 21:46:59;;;;;;;6.50;5.75;;;;;;;8.97;72.72;99013.09;10430915;28;20134;-66
2024/03/01 21:52:01;;;;;;;7.22;5.68;;;;;;;8.92;72.84;99005.56;10379747;28;20056;-67
2024/03/01 21:57:03;;;;;;;5.82;5.03;;;;;;;8.95;72.99;99015.06;10422883;28;20063;-66
2024/03/01 22:02:05;;;;;;;5.85;5.05;;;;;;;8.91;73.06;99005.72;10420570;28;20055;-66
2024/03/01 22:07:10;;;;;;;6.57;5.97;;;;;;;8.89;73.38;99000.53;10431985;28;20157;-66
2024/03/01 22:12:12;;;;;;;8.20;6.67;;;;;;;8.91;73.32;99000.41;10416968;28;20067;-67
2024/03/01 22:17:16;;;;;;;7.00;6.30;;;;;;;8.93;73.24;99001.06;10411400;28;20053;-66
2024/03/01 22:22:21;;;;;;;7.63;6.80;;;;;;;8.85;73.20;98997.31;10411528;28;20129;-66
2024/03/01 22:27:23;;;;;;;8.52;7.55;;;;;;;8.92;73.44;98991.47;10434705;28;20116;-66
2024/03/01 22:32:24;;;;;;;8.85;7.95;;;;;;;8.87;73.23;98985.72;10423961;28;20490;-67
2024/03/01 22:37:26;;;;;;;8.77;7.57;;;;;;;8.90;73.54;98980.97;10402752;28;20052;-66
2024/03/01 22:42:29;;;;;;;9.02;8.25;;;;;;;8.89;73.49;98975.81;10422626;28;20063;-66
2024/03/01 22:47:31;;;;;;;8.55;7.68;;;;;;;8.85;73.58;98970.78;10402693;28;20056;-66
2024/03/01 22:52:38;;;;;;;8.63;7.60;;;;;;;8.85;73.66;98973.44;10438806;28;20071;-66
2024/03/01 22:57:40;;;;;;;8.02;6.85;;;;;;;8.80;73.91;98975.69;10415726;28;20053;-66
2024/03/01 23:02:51;;;;;;;8.43;7.43;;;;;;;8.88;73.73;98984.75;10422515;28;21337;-65
2024/03/01 23:07:53;;;;;;;7.45;6.38;;;;;;;8.90;73.70;98982.78;10401484;28;20044;-68
2024/03/01 23:12:55;;;;;;;8.40;7.50;;;;;;;8.92;74.19;98980.84;10423793;28;20783;-67
2024/03/01 23:17:56;;;;;;;7.50;6.80;;;;;;;8.80;74.03;98978.34;10390013;28;20065;-65
2024/03/01 23:22:58;;;;;;;8.10;6.75;;;;;;;8.79;74.50;98975.84;10416155;28;20148;-66
2024/03/01 23:27:59;;;;;;;8.50;7.60;;;;;;;8.80;74.79;98985.47;10423397;28;20730;-67
2024/03/01 23:33:02;;;;;;;8.70;6.82;;;;;;;8.74;74.46;98981.56;10404389;28;20064;-66